Etusivu
METAR-TAF:

METAR-TAF

Lentoasemat :

Timimoun, Algeria

Leveyspiiri: 29-15N, Pituuspiiri: 000-17E, korkeus merenpinnasta: 312 m

Tämänhetkinen sää

Tämä raportti tehtiin 1 tunti ja 3 minuuttia sitten, kello 11.00 UTC
Tuuli 18 kn lännestä
Lämpötila 29°C
Kosteus 13%
Ilmanpaine 1012 hPa
Näkyvyys 10 km tai enemmän
ei pilviä alle 1500 m:ssä eikä cumulonimbus-pilviä

METAR: DAUT 011100Z 26018KT CAVOK 29/M02 Q1012

Aika: 13:03 (12:03 UTC)

Sääennuste

Tämä raportti tehtiin 1 tunti ja 3 minuuttia sitten, kello 11.00 UTC
Ennuste voimassa 01. päivästä klo 12 UTC - 01. päivään klo 21 UTC
Tuuli 12 kn lännestä/lounaasta
Näkyvyys 10 km tai enemmän
ei pilviä alle 1500 m:ssä eikä cumulonimbus-pilviä
Todennäköisyys 40% :
Ajoittain
01. päivästä klo 12 UTC - 01. päivään klo 18 UTC
Tuuli 15 kn lounaasta puuskistuen 25 kn:hen
Näkyvyys: 5000 m
matalaa hiekkatuisku

TAF: DAUT 011100Z 0112/0121 24012KT CAVOK PROB40 TEMPO 0112/0118 22015G25KT 5000 DRSA

Säähavainnot ja -ennusteet yli 4000 lentoasemalta (METAR- ja TAF-raportit).

Käytössä olevat sääasemat on merkitty karttaan keltaisilla ja punaisilla pisteillä.

Aseta hiiri pisteen päälle nähdäksesi sääaseman nimen.

Klikkaa sitten nähdäksesi säähavainnot ja -ennusteet.

Kartan vaihtaminen: klikkaa mustalla rastilla varustettuja vihreitä pisteitä, niin voit zoomata sisään; viivalla varustettua vihreää pistettä, niin voit zoomata ulos tai vihreitä nuolia, niin pääset viereisille kartoille.


METAR-TAF: